createdAt,value
2024-02-14T00:00:50.980Z,7.13
2024-02-14T00:03:17.701Z,7.43
2024-02-14T00:05:44.178Z,7.03
2024-02-14T00:08:10.822Z,7.50
2024-02-14T00:10:37.484Z,6.73
2024-02-14T00:13:04.164Z,6.97
2024-02-14T00:15:31.668Z,7.07
2024-02-14T00:17:58.265Z,7.00
2024-02-14T00:20:26.104Z,6.93
2024-02-14T00:22:59.974Z,6.37
2024-02-14T00:25:26.330Z,6.80
2024-02-14T00:27:55.526Z,6.60
2024-02-14T00:30:25.433Z,6.40
2024-02-14T00:33:10.384Z,7.23
2024-02-14T00:35:37.174Z,7.23
2024-02-14T00:38:03.917Z,7.27
2024-02-14T00:40:30.695Z,6.10
2024-02-14T00:42:57.474Z,6.67
2024-02-14T00:45:23.800Z,7.13
2024-02-14T00:47:50.655Z,7.30
2024-02-14T00:50:17.721Z,6.63
2024-02-14T00:52:44.848Z,6.63
2024-02-14T00:55:11.294Z,7.23
2024-02-14T00:57:38.094Z,6.60
2024-02-14T01:00:05.518Z,6.50
2024-02-14T01:02:33.595Z,7.23
2024-02-14T01:05:00.252Z,6.60
2024-02-14T01:07:26.618Z,6.30
2024-02-14T01:09:53.643Z,6.90
2024-02-14T01:12:19.926Z,6.47
2024-02-14T01:14:46.804Z,7.00
2024-02-14T01:17:13.617Z,6.67
2024-02-14T01:19:40.001Z,5.73
2024-02-14T01:22:06.485Z,5.70
2024-02-14T01:24:34.437Z,6.53
2024-02-14T01:27:00.854Z,6.03
2024-02-14T01:29:29.946Z,5.60
2024-02-14T01:31:56.922Z,6.03
2024-02-14T01:34:25.580Z,5.80
2024-02-14T01:36:52.377Z,5.40
2024-02-14T01:39:19.638Z,6.47
2024-02-14T01:41:50.364Z,6.10
2024-02-14T01:44:17.938Z,5.30
2024-02-14T01:46:45.104Z,5.93
2024-02-14T01:49:13.466Z,5.30
2024-02-14T01:51:43.626Z,6.00
2024-02-14T01:54:11.491Z,6.03
2024-02-14T01:56:38.058Z,5.40
2024-02-14T01:59:06.988Z,6.33
2024-02-14T02:01:34.731Z,5.57
2024-02-14T02:04:01.306Z,6.27
2024-02-14T02:06:28.830Z,5.97
2024-02-14T02:08:55.403Z,5.70
2024-02-14T02:11:23.629Z,5.50
2024-02-14T02:14:10.772Z,5.70
2024-02-14T02:16:58.368Z,4.97
2024-02-14T02:19:45.218Z,6.33
2024-02-14T02:22:33.545Z,5.47
2024-02-14T02:25:24.759Z,5.93
2024-02-14T02:28:03.604Z,6.07
2024-02-14T02:30:36.615Z,5.60
2024-02-14T02:33:04.066Z,6.63
2024-02-14T02:35:31.123Z,6.00
2024-02-14T02:38:21.253Z,5.97
2024-02-14T02:41:10.182Z,6.20
2024-02-14T02:43:56.574Z,6.13
2024-02-14T02:46:49.941Z,5.30
2024-02-14T02:49:38.456Z,5.50
2024-02-14T02:52:25.061Z,5.43
2024-02-14T02:55:12.044Z,5.67
2024-02-14T02:57:46.841Z,5.80
2024-02-14T03:00:14.675Z,5.80
2024-02-14T03:02:47.295Z,5.20
2024-02-14T03:05:24.848Z,5.20
2024-02-14T03:08:14.925Z,6.10
2024-02-14T03:11:07.743Z,5.90
2024-02-14T03:13:54.225Z,5.97
2024-02-14T03:16:40.666Z,5.60
2024-02-14T03:19:07.221Z,6.10
2024-02-14T03:21:34.244Z,5.57
2024-02-14T03:24:00.820Z,5.83
2024-02-14T03:26:28.154Z,6.30
2024-02-14T03:28:55.734Z,5.90
2024-02-14T03:31:22.435Z,5.80
2024-02-14T03:33:49.450Z,5.30
2024-02-14T03:36:15.940Z,6.30
2024-02-14T03:38:42.670Z,6.37
2024-02-14T03:41:09.254Z,6.80
2024-02-14T03:43:35.659Z,6.47
2024-02-14T03:46:02.304Z,6.63
2024-02-14T03:48:28.932Z,5.93
2024-02-14T03:50:55.553Z,6.33
2024-02-14T03:53:22.051Z,6.23
2024-02-14T03:55:48.458Z,6.80
2024-02-14T03:58:16.463Z,6.30
2024-02-14T04:00:45.154Z,6.00
2024-02-14T04:03:14.786Z,6.10
2024-02-14T04:05:41.353Z,6.23
2024-02-14T04:08:11.519Z,6.60
2024-02-14T04:10:38.838Z,5.57
2024-02-14T04:13:06.036Z,6.83
2024-02-14T04:15:33.001Z,5.90
2024-02-14T04:18:08.317Z,6.50
2024-02-14T04:20:34.901Z,6.50
2024-02-14T04:23:01.467Z,6.00
2024-02-14T04:25:28.541Z,6.13
2024-02-14T04:27:55.267Z,5.60
2024-02-14T04:30:21.704Z,6.00
2024-02-14T04:33:07.353Z,6.10
2024-02-14T04:35:35.814Z,6.30
2024-02-14T04:38:02.268Z,6.07
2024-02-14T04:40:28.757Z,6.63
2024-02-14T04:42:55.489Z,5.90
2024-02-14T04:45:21.980Z,6.43
2024-02-14T04:47:57.520Z,6.17
2024-02-14T04:50:24.041Z,6.00
2024-02-14T04:52:50.434Z,5.73
2024-02-14T04:55:16.880Z,6.10
2024-02-14T04:57:43.455Z,5.60
2024-02-14T05:00:10.951Z,5.80
2024-02-14T05:02:38.722Z,6.10
2024-02-14T05:05:05.572Z,6.63
2024-02-14T05:07:35.436Z,6.30
2024-02-14T05:10:02.151Z,6.20
2024-02-14T05:12:30.381Z,5.43
2024-02-14T05:14:56.802Z,6.23
2024-02-14T05:17:24.832Z,5.93
2024-02-14T05:19:51.446Z,6.47
2024-02-14T05:22:19.562Z,5.73
2024-02-14T05:24:45.983Z,6.47
2024-02-14T05:27:12.873Z,6.63
2024-02-14T05:29:40.124Z,6.40
2024-02-14T05:32:07.197Z,6.63
2024-02-14T05:34:33.720Z,6.07
2024-02-14T05:37:00.636Z,6.47
2024-02-14T05:39:27.317Z,5.80
2024-02-14T05:41:55.413Z,5.43
2024-02-14T05:44:22.472Z,5.23
2024-02-14T05:46:49.150Z,5.60
2024-02-14T05:49:15.786Z,6.40
2024-02-14T05:51:43.383Z,5.80
2024-02-14T05:54:10.590Z,6.50
2024-02-14T05:56:37.981Z,5.53
2024-02-14T05:59:04.427Z,5.70
2024-02-14T06:01:31.404Z,6.17
2024-02-14T06:03:59.206Z,6.37
2024-02-14T06:06:29.379Z,6.13
2024-02-14T06:08:56.523Z,6.20
2024-02-14T06:11:27.507Z,6.17
2024-02-14T06:13:54.525Z,4.67
2024-02-14T06:16:21.283Z,5.60
2024-02-14T06:18:48.225Z,5.37
2024-02-14T06:21:15.084Z,5.03
2024-02-14T06:23:44.348Z,5.40
2024-02-14T06:26:10.743Z,5.40
2024-02-14T06:28:37.163Z,4.90
2024-02-14T06:31:04.116Z,4.20
2024-02-14T06:33:30.637Z,4.33
2024-02-14T06:35:57.772Z,5.20
2024-02-14T06:38:24.766Z,4.93
2024-02-14T06:40:51.340Z,4.83
2024-02-14T06:43:19.515Z,4.50
2024-02-14T06:45:48.285Z,5.03
2024-02-14T06:48:26.325Z,4.67
2024-02-14T06:50:52.869Z,4.10
2024-02-14T06:53:20.661Z,4.40
2024-02-14T06:55:49.512Z,4.37
2024-02-14T06:58:16.321Z,4.47
2024-02-14T07:00:43.732Z,4.40
2024-02-14T07:03:10.335Z,4.80
2024-02-14T07:05:36.937Z,4.50
2024-02-14T07:08:03.444Z,3.90
2024-02-14T07:10:30.547Z,4.43
2024-02-14T07:12:56.979Z,4.47
2024-02-14T07:15:27.290Z,4.27
2024-02-14T07:17:54.546Z,4.43
2024-02-14T07:20:21.618Z,4.03
2024-02-14T07:22:49.048Z,3.90
2024-02-14T07:25:16.013Z,4.07
2024-02-14T07:27:43.538Z,3.63
2024-02-14T07:30:10.810Z,4.27
2024-02-14T07:32:38.164Z,3.30
2024-02-14T07:35:06.829Z,4.17
2024-02-14T07:37:34.396Z,4.00
2024-02-14T07:40:01.995Z,3.93
2024-02-14T07:42:31.098Z,3.27
2024-02-14T07:44:57.811Z,4.17
2024-02-14T07:47:25.072Z,3.97
2024-02-14T07:49:54.262Z,3.50
2024-02-14T07:52:20.706Z,4.27
2024-02-14T07:54:48.120Z,3.60
2024-02-14T07:57:16.441Z,3.43
2024-02-14T07:59:43.211Z,4.23
2024-02-14T08:02:12.042Z,4.03
2024-02-14T08:04:39.822Z,5.70
2024-02-14T08:07:07.097Z,6.20
2024-02-14T08:09:35.107Z,6.80
2024-02-14T08:12:04.045Z,6.03
2024-02-14T08:14:31.053Z,6.03
2024-02-14T08:16:58.070Z,6.10
2024-02-14T08:19:25.184Z,6.40
2024-02-14T08:21:53.241Z,5.70
2024-02-14T08:24:20.509Z,4.33
2024-02-14T08:26:46.889Z,4.90
2024-02-14T08:29:15.008Z,4.50
2024-02-14T08:31:42.336Z,4.20
2024-02-14T08:34:10.905Z,3.80
2024-02-14T08:36:42.717Z,4.00
2024-02-14T08:39:10.325Z,3.73
2024-02-14T08:41:42.568Z,4.20
2024-02-14T08:44:10.188Z,3.40
2024-02-14T08:46:36.588Z,3.10
2024-02-14T08:49:12.196Z,3.40
2024-02-14T08:51:39.967Z,3.47
2024-02-14T08:54:17.297Z,3.17
2024-02-14T08:56:43.865Z,2.40
2024-02-14T08:59:12.212Z,3.17
2024-02-14T09:01:39.210Z,3.10
2024-02-14T09:04:05.794Z,2.80
2024-02-14T09:06:33.939Z,2.90
2024-02-14T09:09:00.401Z,2.73
2024-02-14T09:11:27.405Z,2.77
2024-02-14T09:13:57.350Z,2.70
2024-02-14T09:16:24.488Z,3.20
2024-02-14T09:18:51.473Z,3.00
2024-02-14T09:21:19.255Z,2.77
2024-02-14T09:23:46.882Z,3.63
2024-02-14T09:26:13.552Z,2.53
2024-02-14T09:28:43.949Z,2.90
2024-02-14T09:31:14.075Z,3.07
2024-02-14T09:33:43.645Z,2.97
2024-02-14T09:36:10.236Z,3.20
2024-02-14T09:38:36.831Z,3.17
2024-02-14T09:41:21.890Z,3.10
2024-02-14T09:43:48.310Z,2.67
2024-02-14T09:46:15.502Z,3.23
2024-02-14T09:48:45.637Z,2.53
2024-02-14T09:51:16.327Z,3.00
2024-02-14T09:53:43.790Z,2.73
2024-02-14T09:56:13.429Z,2.90
2024-02-14T09:58:41.499Z,3.20
2024-02-14T10:01:08.340Z,3.10
2024-02-14T10:03:36.740Z,3.47
2024-02-14T10:06:06.011Z,3.13
2024-02-14T10:08:33.935Z,3.60
2024-02-14T10:11:01.281Z,3.10
2024-02-14T10:13:33.304Z,3.43
2024-02-14T10:16:00.488Z,2.90
2024-02-14T10:18:28.967Z,3.10
2024-02-14T10:20:59.003Z,2.47
2024-02-14T10:23:28.281Z,3.27
2024-02-14T10:25:58.334Z,2.97
2024-02-14T10:28:33.020Z,3.40
2024-02-14T10:31:07.788Z,3.20
2024-02-14T10:33:35.093Z,2.90
2024-02-14T10:36:08.569Z,3.00
2024-02-14T10:38:36.541Z,3.00
2024-02-14T10:41:04.366Z,3.00
2024-02-14T10:43:32.428Z,3.37
2024-02-14T10:46:02.194Z,2.70
2024-02-14T10:48:56.329Z,3.07
2024-02-14T10:51:24.006Z,2.93
2024-02-14T10:53:50.789Z,3.13
2024-02-14T10:56:23.303Z,2.80
2024-02-14T10:58:51.120Z,3.53
2024-02-14T11:01:18.885Z,2.80
2024-02-14T11:03:45.939Z,2.87
2024-02-14T11:06:17.477Z,3.03
2024-02-14T11:08:54.640Z,2.77
2024-02-14T11:11:21.379Z,2.80
2024-02-14T11:13:47.742Z,2.60
2024-02-14T11:16:14.355Z,2.83
2024-02-14T11:18:41.177Z,2.73
2024-02-14T11:21:17.262Z,2.70
2024-02-14T11:23:53.442Z,3.00
2024-02-14T11:26:20.320Z,2.60
2024-02-14T11:28:48.401Z,2.87
2024-02-14T11:31:17.856Z,3.00
2024-02-14T11:33:47.757Z,3.50
2024-02-14T11:36:17.222Z,2.93
2024-02-14T11:38:43.586Z,3.20
2024-02-14T11:41:11.628Z,2.80
2024-02-14T11:43:40.845Z,3.40
2024-02-14T11:46:08.041Z,3.63
2024-02-14T11:48:35.147Z,3.47
2024-02-14T11:51:01.742Z,2.80
2024-02-14T11:53:29.547Z,4.07
2024-02-14T11:55:56.872Z,3.50
2024-02-14T11:58:23.460Z,3.60
2024-02-14T12:00:50.473Z,4.07
2024-02-14T12:03:18.201Z,5.10
2024-02-14T12:05:45.634Z,4.50
2024-02-14T12:08:12.291Z,4.03
2024-02-14T12:10:43.406Z,4.00
2024-02-14T12:13:10.453Z,3.50
2024-02-14T12:15:40.568Z,3.80
2024-02-14T12:18:09.538Z,4.00
2024-02-14T12:20:36.172Z,3.57
2024-02-14T12:23:03.048Z,3.60
2024-02-14T12:25:31.075Z,3.60
2024-02-14T12:27:58.147Z,4.30
2024-02-14T12:30:29.810Z,4.10
2024-02-14T12:33:01.050Z,3.50
2024-02-14T12:35:28.116Z,4.17
2024-02-14T12:37:55.665Z,4.13
2024-02-14T12:40:25.031Z,3.40
2024-02-14T12:42:52.415Z,4.20
2024-02-14T12:45:20.250Z,3.37
2024-02-14T12:47:47.347Z,3.30
2024-02-14T12:50:14.201Z,3.00
2024-02-14T12:52:41.296Z,3.50
2024-02-14T12:55:10.594Z,3.10
2024-02-14T12:57:38.344Z,3.77
2024-02-14T13:00:10.122Z,3.30
2024-02-14T13:02:37.194Z,3.57
2024-02-14T13:05:06.737Z,3.10
2024-02-14T13:07:33.907Z,3.67
2024-02-14T13:10:00.847Z,3.77
2024-02-14T13:12:28.152Z,3.10
2024-02-14T13:14:55.804Z,3.23
2024-02-14T13:17:27.309Z,3.00
2024-02-14T13:19:55.063Z,3.17
2024-02-14T13:22:21.907Z,3.10
2024-02-14T13:24:50.030Z,3.30
2024-02-14T13:27:16.595Z,3.10
2024-02-14T13:29:43.280Z,3.20
2024-02-14T13:32:09.638Z,3.77
2024-02-14T13:34:36.941Z,3.47
2024-02-14T13:37:03.742Z,3.17
2024-02-14T13:39:30.157Z,3.67
2024-02-14T13:42:01.423Z,3.70
2024-02-14T13:44:31.462Z,3.97
2024-02-14T13:47:00.593Z,3.40
2024-02-14T13:49:27.958Z,4.00
2024-02-14T13:51:54.633Z,4.50
2024-02-14T13:54:21.341Z,4.20
2024-02-14T13:56:50.017Z,3.70
2024-02-14T13:59:17.483Z,4.03
2024-02-14T14:01:43.997Z,4.30
2024-02-14T14:04:10.191Z,3.97
2024-02-14T14:06:36.934Z,3.73
2024-02-14T14:09:10.087Z,3.60
2024-02-14T14:11:37.267Z,3.97
2024-02-14T14:14:07.061Z,4.00
2024-02-14T14:16:34.363Z,4.57
2024-02-14T14:19:03.868Z,4.23
2024-02-14T14:21:31.343Z,4.10
2024-02-14T14:23:58.507Z,4.90
2024-02-14T14:26:26.758Z,4.27
2024-02-14T14:28:55.742Z,4.97
2024-02-14T14:31:22.857Z,4.33
2024-02-14T14:33:50.588Z,4.27
2024-02-14T14:36:17.166Z,4.37
2024-02-14T14:38:44.194Z,4.30
2024-02-14T14:41:11.529Z,4.47
2024-02-14T14:43:38.387Z,3.77
2024-02-14T14:46:04.752Z,3.77
2024-02-14T14:48:31.401Z,4.33
2024-02-14T14:50:58.087Z,3.70
2024-02-14T14:53:24.954Z,3.37
2024-02-14T14:55:57.203Z,3.90
2024-02-14T14:58:26.595Z,4.55
2024-02-14T15:00:59.941Z,6.33
2024-02-14T15:03:26.705Z,4.57
2024-02-14T15:05:55.045Z,4.50
2024-02-14T15:08:27.278Z,4.00
2024-02-14T15:10:54.231Z,4.23
2024-02-14T15:13:25.457Z,4.10
2024-02-14T15:15:52.176Z,3.73
2024-02-14T15:18:20.499Z,3.60
2024-02-14T15:20:48.079Z,4.23
2024-02-14T15:23:14.527Z,3.70
2024-02-14T15:25:40.903Z,3.90
2024-02-14T15:28:14.844Z,3.70
2024-02-14T15:31:00.274Z,3.90
2024-02-14T15:33:29.159Z,3.20
2024-02-14T15:35:57.482Z,4.17
2024-02-14T15:38:25.031Z,4.73
2024-02-14T15:40:59.074Z,4.50
2024-02-14T15:43:26.626Z,4.83
2024-02-14T15:45:53.493Z,4.10
2024-02-14T15:48:22.957Z,4.20
2024-02-14T15:50:51.520Z,3.77
2024-02-14T15:53:20.472Z,3.47
2024-02-14T15:55:47.337Z,3.00
2024-02-14T15:58:16.816Z,3.63
2024-02-14T16:00:43.546Z,3.97
2024-02-14T16:03:11.379Z,3.90
2024-02-14T16:05:38.210Z,3.67
2024-02-14T16:08:16.033Z,3.97
2024-02-14T16:10:42.254Z,4.30
2024-02-14T16:13:08.882Z,3.77
2024-02-14T16:15:35.244Z,4.13
2024-02-14T16:18:01.684Z,4.10
2024-02-14T16:20:28.210Z,3.40
2024-02-14T16:22:54.723Z,3.70
2024-02-14T16:25:21.392Z,4.00
2024-02-14T16:27:48.104Z,4.00
2024-02-14T16:30:16.796Z,3.87
2024-02-14T16:32:46.140Z,4.67
2024-02-14T16:35:13.001Z,4.90
2024-02-14T16:37:39.797Z,4.37
2024-02-14T16:40:08.872Z,4.50
2024-02-14T16:42:35.522Z,4.63
2024-02-14T16:45:05.050Z,4.90
2024-02-14T16:47:31.722Z,7.23
2024-02-14T16:49:58.236Z,7.60
2024-02-14T16:52:24.973Z,6.37
2024-02-14T16:54:52.704Z,5.17
2024-02-14T16:57:20.855Z,5.07
2024-02-14T16:59:47.957Z,4.97
2024-02-14T17:02:14.850Z,4.50
2024-02-14T17:04:41.862Z,4.13
2024-02-14T17:07:12.266Z,4.30
2024-02-14T17:09:39.474Z,4.77
2024-02-14T17:12:09.730Z,4.53
2024-02-14T17:14:39.663Z,4.33
2024-02-14T17:17:08.076Z,4.40
2024-02-14T17:19:34.560Z,4.43
2024-02-14T17:22:01.563Z,3.90
2024-02-14T17:24:28.953Z,4.40
2024-02-14T17:26:55.605Z,3.87
2024-02-14T17:29:23.123Z,4.00
2024-02-14T17:31:51.303Z,3.60
2024-02-14T17:34:18.217Z,3.33
2024-02-14T17:36:45.273Z,3.73
2024-02-14T17:39:12.055Z,3.93
2024-02-14T17:41:38.979Z,4.13
2024-02-14T17:44:07.230Z,3.80
2024-02-14T17:46:33.752Z,3.80
2024-02-14T17:49:00.647Z,3.30
2024-02-14T17:51:29.867Z,4.20
2024-02-14T17:53:58.676Z,4.30
2024-02-14T17:56:26.241Z,4.30
2024-02-14T17:58:52.632Z,4.20
2024-02-14T18:01:20.040Z,4.00
2024-02-14T18:03:46.620Z,3.77
2024-02-14T18:06:13.128Z,3.40
2024-02-14T18:08:39.744Z,3.27
2024-02-14T18:11:06.787Z,3.57
2024-02-14T18:13:34.088Z,3.20
2024-02-14T18:16:00.623Z,2.67
2024-02-14T18:18:29.480Z,3.20
2024-02-14T18:20:57.103Z,3.20
2024-02-14T18:23:23.722Z,2.90
2024-02-14T18:25:50.160Z,3.80
2024-02-14T18:28:16.524Z,3.20
2024-02-14T18:30:42.926Z,3.43
2024-02-14T18:33:12.811Z,3.30
2024-02-14T18:35:40.117Z,2.70
2024-02-14T18:38:09.746Z,2.77
2024-02-14T18:40:37.138Z,2.83
2024-02-14T18:43:04.315Z,3.33
2024-02-14T18:45:30.638Z,3.23
2024-02-14T18:47:56.668Z,3.30
2024-02-14T18:50:24.281Z,2.80
2024-02-14T18:52:51.649Z,2.93
2024-02-14T18:55:22.323Z,2.63
2024-02-14T18:57:48.884Z,3.03
2024-02-14T19:00:15.638Z,3.10
2024-02-14T19:02:43.912Z,3.10
2024-02-14T19:05:10.368Z,2.50
2024-02-14T19:07:38.227Z,3.03
2024-02-14T19:10:05.744Z,2.90
2024-02-14T19:12:35.055Z,2.80
2024-02-14T19:15:07.149Z,2.70
2024-02-14T19:17:35.485Z,2.60
2024-02-14T19:20:07.303Z,2.80
2024-02-14T19:22:33.992Z,2.73
2024-02-14T19:25:00.366Z,3.00
2024-02-14T19:27:26.491Z,3.30
2024-02-14T19:29:53.417Z,2.80
2024-02-14T19:32:19.835Z,2.70
2024-02-14T19:34:46.495Z,2.87
2024-02-14T19:37:13.679Z,2.57
2024-02-14T19:39:40.082Z,2.60
2024-02-14T19:42:06.594Z,2.37
2024-02-14T19:44:32.955Z,2.53
2024-02-14T19:47:01.251Z,2.70
2024-02-14T19:49:29.970Z,2.57
2024-02-14T19:51:56.462Z,2.40
2024-02-14T19:54:24.103Z,2.87
2024-02-14T19:56:50.974Z,2.43
2024-02-14T19:59:19.112Z,2.20
2024-02-14T20:01:45.806Z,2.47
2024-02-14T20:04:13.132Z,2.37
2024-02-14T20:06:40.727Z,2.20
2024-02-14T20:09:08.536Z,2.17
2024-02-14T20:11:36.149Z,2.30
2024-02-14T20:14:02.664Z,2.73
2024-02-14T20:16:30.345Z,2.47
2024-02-14T20:18:57.957Z,2.10
2024-02-14T20:21:25.015Z,2.30
2024-02-14T20:23:52.729Z,2.93
2024-02-14T20:26:18.826Z,2.37
2024-02-14T20:28:45.309Z,2.50
2024-02-14T20:31:12.271Z,2.50
2024-02-14T20:33:39.537Z,2.20
2024-02-14T20:36:08.753Z,2.63
2024-02-14T20:38:35.529Z,2.03
2024-02-14T20:41:02.529Z,2.50
2024-02-14T20:43:29.177Z,2.40
2024-02-14T20:45:55.632Z,2.23
2024-02-14T20:48:23.594Z,2.60
2024-02-14T20:50:51.244Z,2.70
2024-02-14T20:53:19.893Z,2.73
2024-02-14T20:55:47.571Z,2.93
2024-02-14T20:58:15.160Z,3.50
2024-02-14T21:00:44.423Z,3.33
2024-02-14T21:03:11.290Z,3.00
2024-02-14T21:05:40.289Z,3.00
2024-02-14T21:08:08.181Z,3.50
2024-02-14T21:10:36.932Z,3.70
2024-02-14T21:13:06.083Z,3.50
2024-02-14T21:15:35.033Z,4.03
2024-02-14T21:18:02.834Z,4.10
2024-02-14T21:20:31.851Z,3.70
2024-02-14T21:22:59.944Z,3.63
2024-02-14T21:25:28.501Z,4.20
2024-02-14T21:27:59.708Z,4.17
2024-02-14T21:30:28.784Z,4.23
2024-02-14T21:32:58.118Z,4.40
2024-02-14T21:35:24.517Z,3.73
2024-02-14T21:37:50.743Z,4.60
2024-02-14T21:40:18.078Z,4.10
2024-02-14T21:42:45.935Z,4.10
2024-02-14T21:45:13.160Z,4.17
2024-02-14T21:47:40.531Z,4.50
2024-02-14T21:50:07.569Z,5.00
2024-02-14T21:52:35.088Z,4.70
2024-02-14T21:55:01.531Z,4.80
2024-02-14T21:57:29.981Z,4.60
2024-02-14T21:59:56.189Z,4.13
2024-02-14T22:02:22.453Z,3.90
2024-02-14T22:04:49.828Z,4.87
2024-02-14T22:07:17.625Z,5.10
2024-02-14T22:09:44.377Z,5.23
2024-02-14T22:12:10.857Z,5.00
2024-02-14T22:14:37.654Z,4.70
2024-02-14T22:17:07.836Z,5.30
2024-02-14T22:19:39.779Z,5.30
2024-02-14T22:22:07.059Z,5.30
2024-02-14T22:24:36.109Z,5.90
2024-02-14T22:27:02.961Z,5.40
2024-02-14T22:29:31.806Z,5.50
2024-02-14T22:31:59.626Z,5.07
2024-02-14T22:34:26.252Z,5.67
2024-02-14T22:36:53.313Z,5.83
2024-02-14T22:39:19.730Z,5.10
2024-02-14T22:41:47.224Z,5.77
2024-02-14T22:44:14.724Z,5.13
2024-02-14T22:46:41.749Z,6.30
2024-02-14T22:49:08.606Z,6.00
2024-02-14T22:51:35.159Z,6.10
2024-02-14T22:54:03.242Z,6.40
2024-02-14T22:56:30.197Z,5.57
2024-02-14T22:58:57.321Z,5.27
2024-02-14T23:01:24.335Z,6.20
2024-02-14T23:03:50.513Z,6.23
2024-02-14T23:06:17.166Z,6.90
2024-02-14T23:08:43.580Z,7.10
2024-02-14T23:11:12.646Z,5.80
2024-02-14T23:13:39.099Z,6.03
2024-02-14T23:16:06.229Z,6.33
2024-02-14T23:18:34.179Z,5.30
2024-02-14T23:21:00.728Z,5.80
2024-02-14T23:23:27.209Z,5.90
2024-02-14T23:25:53.430Z,5.50
2024-02-14T23:28:19.823Z,5.20
2024-02-14T23:30:47.349Z,5.97
2024-02-14T23:33:14.691Z,5.80
2024-02-14T23:35:41.587Z,4.90
2024-02-14T23:38:09.433Z,5.30
2024-02-14T23:40:37.051Z,5.90
2024-02-14T23:43:04.910Z,5.87
2024-02-14T23:45:33.005Z,5.40
2024-02-14T23:48:00.103Z,4.90
2024-02-14T23:50:28.626Z,5.17
2024-02-14T23:52:56.377Z,5.40
2024-02-14T23:55:24.049Z,5.70
2024-02-14T23:57:50.795Z,5.27
